Aérodrome :
LOGIN :

S'inscrire | Disclaimer

   EN    FR    IT 

 










Légende :    VFR   VFR Marginal   IFR   IFR Intensif   IFR Très Intensif
Visi : 
Plafond : 
>= 8 km
>= 3000ft
5 à 8 km
1000 à 3000 ft
1500m à 5 km
500 à 1000 ft
800 à 1500m
200 à 500 ft
< 800m
< 200 ft
Symboles :   Orages  Brouillard  Fortes neiges  Fortes précipitations  Vent > 20 kt
SIGMETs :   Divers  Orages  Givrage  Turbulence  Onde Orograph.  Cendres Volcan.







- Altitude de l'aérodrome : 461 ft
- Code IATA : WIE


ETOU - Wiesbaden Army

DERNIER METAR :
  • 200156Z AUTO 25008KT 9999 FEW065 BKN140 OVC160 04/02 A3017 RMK AO2 SLP224 T00350020

METARs EXPIRÉS :
  • 200056Z AUTO 28007KT 9999 SCT031 04/02 A3016 RMK AO2 SLP220 T00400022
  • 192356Z AUTO 28008KT 9999 SCT026 BKN070 05/03 A3018 RMK AO2 RAE13DZB13E21RAB24E40 SLP227 P0000 60005 T00460029 10057 20042 51007
  • 192340Z AUTO 29008KT 9999 SCT025 05/03 A3018 RMK AO2 RAE13DZB13E21RAB24E40 SLP227
  • 192324Z AUTO 29008KT 9999 -RA SCT022 SCT030 05/03 A3018 RMK AO2 RAE13DZB13E21RAB24 SLP227
  • 192321Z AUTO 29007KT 9999 SCT022 05/03 A3018 RMK AO2 RAE13DZB13E21 SLP227

TAF TAF ETOU
Valide du 19 à 19h jusqu'au 21 à 01h UTC


191900Z 1919/2101 27009KT 9999 BKN020 620206 QNH3012INS
TEMPO 1919/1924 27010G15KT 8000 -SHRA
BECMG 2003/2004 25009KT 9999 SCT030 QNH3015INS
BECMG 2006/2007 22006KT 9999 BKN020 OVC080 QNH3015INS
BECMG 2012/2013 23009KT 8000 -SHRA BKN015 610309 611203 QNH3006INS
TEMPO 2016/2022 23010G15KT BKN007 TX06/1919Z TN01/2004Z LAST NO AMDS AFT 1919 NEXT 2003
Pas de NOTAMs connus pour ce terrain.



MET'MAP, la Météo Aéronautique d'un coup d'oeil ! - Copyright ORBIFLY Décembre 2007 - Disclaimer

ORBIFLY MET'MAP TEAM :

Programmation & Développement : Alexandra Zaïnal
Conception & Développement : Baudouin d'Aumeries
Co-Programmation & Développement : Marc-Olivier Méhu
Soutien technique & logistique : Manuel Goepfert

Contact : metmap@orbifly.com




SOURCES & CREDITS :

   NOAA